createdAt,value
2019-05-22T00:03:34.083Z,95.81
2019-05-22T00:18:34.201Z,94.89
2019-05-22T00:33:36.312Z,95.94
2019-05-22T00:48:36.570Z,95.74
2019-05-22T01:03:36.871Z,95.94
2019-05-22T01:18:37.073Z,95.79
2019-05-22T01:33:37.175Z,95.28
2019-05-22T01:48:37.291Z,95.73
2019-05-22T02:03:37.511Z,95.42
2019-05-22T02:18:37.660Z,95.73
2019-05-22T02:33:37.811Z,95.32
2019-05-22T02:48:42.105Z,95.73
2019-05-22T03:03:43.155Z,96.99
2019-05-22T03:18:43.440Z,97.85
2019-05-22T03:33:44.065Z,98.05
2019-05-22T03:48:44.216Z,98.96
2019-05-22T04:03:44.819Z,98.86
2019-05-22T04:18:45.004Z,98.91
2019-05-22T04:33:45.238Z,97.53
2019-05-22T04:48:46.346Z,96.41
2019-05-22T05:03:46.563Z,95.90
2019-05-22T05:18:46.670Z,96.41
2019-05-22T05:33:46.858Z,96.30
2019-05-22T05:48:47.175Z,95.94
2019-05-22T06:03:47.414Z,95.89
2019-05-22T06:18:47.510Z,95.78
2019-05-22T06:33:47.704Z,95.07
2019-05-22T06:48:47.902Z,93.74
2019-05-22T07:03:48.120Z,93.19
2019-05-22T07:18:48.351Z,92.79
2019-05-22T07:33:49.795Z,93.70
2019-05-22T07:48:50.001Z,93.70
2019-05-22T08:03:50.150Z,93.60
2019-05-22T08:18:50.294Z,93.90
2019-05-22T08:33:50.417Z,93.60
2019-05-22T08:48:50.623Z,93.09
2019-05-22T09:03:50.775Z,91.48
2019-05-22T09:18:50.854Z,91.38
2019-05-22T09:33:51.051Z,89.70
2019-05-22T09:48:51.147Z,88.24
2019-05-22T10:03:51.236Z,88.44
2019-05-22T10:18:53.396Z,89.91
2019-05-22T10:33:53.708Z,89.61
2019-05-22T10:48:53.940Z,88.59
2019-05-22T11:03:54.142Z,87.73
2019-05-22T11:18:54.245Z,88.04
2019-05-22T11:33:54.453Z,86.88
2019-05-22T11:48:54.576Z,85.76
2019-05-22T12:03:54.751Z,85.29
2019-05-22T12:18:58.442Z,86.37
2019-05-22T12:33:59.025Z,85.70
2019-05-22T12:49:00.219Z,86.31
2019-05-22T13:04:00.408Z,86.86
2019-05-22T13:19:01.120Z,87.37
2019-05-22T13:34:01.311Z,87.77
2019-05-22T13:49:01.375Z,87.10
2019-05-22T14:04:01.591Z,88.42
2019-05-22T14:19:01.900Z,87.41
2019-05-22T14:34:01.958Z,86.08
2019-05-22T14:49:02.621Z,86.59
2019-05-22T15:04:02.768Z,86.90
2019-05-22T15:19:02.907Z,86.49
2019-05-22T15:34:03.139Z,86.39
2019-05-22T15:49:03.337Z,85.53
2019-05-22T16:04:03.518Z,85.74
2019-05-22T16:19:03.673Z,85.68
2019-05-22T16:34:03.889Z,85.58
2019-05-22T16:49:04.000Z,85.47
2019-05-22T17:04:04.651Z,85.33
2019-05-22T17:19:25.284Z,84.21
2019-05-22T17:34:10.461Z,84.45
2019-05-22T17:49:11.093Z,85.74
2019-05-22T18:04:12.075Z,84.52
2019-05-22T18:19:12.421Z,83.34
2019-05-22T18:34:12.706Z,82.32
2019-05-22T18:49:12.921Z,80.49
2019-05-22T19:04:13.229Z,78.86
2019-05-22T19:19:13.468Z,77.74
2019-05-22T19:34:13.636Z,77.37
2019-05-22T19:49:13.767Z,79.03
2019-05-22T20:04:13.990Z,78.63
2019-05-22T20:19:14.090Z,79.85
2019-05-22T20:34:14.289Z,79.79
2019-05-22T20:49:14.477Z,81.15
2019-05-22T21:04:14.619Z,81.45
2019-05-22T21:19:14.808Z,81.96
2019-05-22T21:34:14.934Z,82.27
2019-05-22T21:49:15.141Z,83.43
2019-05-22T22:04:15.316Z,83.63
2019-05-22T22:19:15.481Z,84.25
2019-05-22T22:34:15.612Z,84.14
2019-05-22T22:49:16.735Z,83.33
2019-05-22T23:04:16.919Z,83.57
2019-05-22T23:19:18.066Z,84.08
2019-05-22T23:34:18.198Z,84.01
2019-05-22T23:49:18.371Z,84.22
